createdAt,value
2022-12-17T00:04:27.478Z,23.13
2022-12-17T00:15:10.600Z,19.80
2022-12-17T00:20:30.599Z,20.50
2022-12-17T00:25:50.523Z,27.55
2022-12-17T00:36:30.920Z,24.60
2022-12-17T00:47:10.724Z,23.35
2022-12-17T00:52:30.947Z,26.48
2022-12-17T00:57:50.814Z,19.50
2022-12-17T01:08:33.771Z,25.58
2022-12-17T01:13:53.649Z,23.20
2022-12-17T01:19:17.608Z,20.73
2022-12-17T01:24:37.516Z,16.75
2022-12-17T01:35:30.807Z,26.45
2022-12-17T01:40:50.748Z,25.00
2022-12-17T01:46:10.724Z,27.35
2022-12-17T01:51:32.429Z,23.63
2022-12-17T01:56:54.599Z,20.58
2022-12-17T02:02:14.632Z,20.90
2022-12-17T02:08:05.188Z,23.35
2022-12-17T02:13:54.412Z,40.85
2022-12-17T02:19:21.504Z,26.13
2022-12-17T02:24:50.055Z,25.60
2022-12-17T02:30:14.051Z,25.02
2022-12-17T02:35:36.765Z,22.50
2022-12-17T02:40:58.169Z,24.10
2022-12-17T02:46:18.166Z,21.70
2022-12-17T02:51:39.281Z,26.73
2022-12-17T02:56:59.093Z,20.80
2022-12-17T03:02:19.060Z,22.70
2022-12-17T03:07:39.152Z,22.80
2022-12-17T03:12:59.032Z,23.98
2022-12-17T03:18:18.806Z,16.38
2022-12-17T03:28:59.089Z,24.88
2022-12-17T03:34:19.365Z,26.60
2022-12-17T03:39:39.236Z,27.70
2022-12-17T03:44:59.152Z,23.17
2022-12-17T03:50:19.231Z,26.05
2022-12-17T03:55:39.142Z,23.27
2022-12-17T04:00:59.040Z,19.73
2022-12-17T04:06:18.921Z,20.98
2022-12-17T04:11:38.698Z,25.63
2022-12-17T04:16:58.604Z,29.23
2022-12-17T04:22:18.361Z,28.15
2022-12-17T04:27:38.318Z,27.88
2022-12-17T04:32:58.222Z,26.08
2022-12-17T04:38:18.088Z,40.40
2022-12-17T04:43:38.695Z,25.42
2022-12-17T04:48:59.414Z,23.65
2022-12-17T04:54:19.794Z,26.45
2022-12-17T04:59:39.689Z,28.27
2022-12-17T05:04:59.577Z,21.73
2022-12-17T05:10:19.456Z,24.80
2022-12-17T05:15:39.925Z,19.85
2022-12-17T05:21:00.218Z,20.58
2022-12-17T05:26:37.153Z,19.17
2022-12-17T05:31:57.044Z,21.67
2022-12-17T05:37:16.944Z,18.92
2022-12-17T05:42:36.779Z,25.63
2022-12-17T05:47:56.752Z,20.35
2022-12-17T05:53:21.238Z,19.80
2022-12-17T05:58:41.056Z,18.70
2022-12-17T06:04:01.503Z,19.90
2022-12-17T06:09:21.993Z,19.65
2022-12-17T06:14:42.047Z,17.88
2022-12-17T06:20:01.858Z,22.90
2022-12-17T06:25:22.444Z,20.55
2022-12-17T06:30:42.534Z,20.95
2022-12-17T06:36:02.461Z,22.65
2022-12-17T06:41:22.313Z,22.58
2022-12-17T06:46:42.319Z,26.95
2022-12-17T06:52:02.478Z,20.42
2022-12-17T06:57:22.542Z,28.63
2022-12-17T07:02:42.486Z,33.67
2022-12-17T07:08:22.493Z,22.80
2022-12-17T07:13:42.331Z,26.52
2022-12-17T07:19:02.151Z,15.98
2022-12-17T07:24:22.439Z,22.75
2022-12-17T07:29:42.489Z,17.02
2022-12-17T07:35:02.344Z,13.98
2022-12-17T07:40:23.351Z,16.83
2022-12-17T07:45:43.618Z,21.23
2022-12-17T07:51:07.647Z,22.08
2022-12-17T07:56:27.626Z,21.17
2022-12-17T08:01:47.651Z,16.27
2022-12-17T08:07:13.888Z,17.42
2022-12-17T08:12:34.540Z,19.15
2022-12-17T08:17:54.301Z,20.80
2022-12-17T08:23:22.090Z,26.67
2022-12-17T08:28:50.457Z,33.97
2022-12-17T08:34:10.942Z,21.00
2022-12-17T08:39:30.779Z,28.15
2022-12-17T08:44:50.724Z,17.40
2022-12-17T08:50:10.743Z,20.73
2022-12-17T08:55:30.586Z,28.65
2022-12-17T09:00:50.544Z,34.58
2022-12-17T09:06:10.846Z,37.15
2022-12-17T09:11:31.010Z,29.15
2022-12-17T09:16:50.977Z,33.95
2022-12-17T09:22:11.189Z,35.63
2022-12-17T09:27:31.068Z,38.33
2022-12-17T09:32:50.975Z,38.97
2022-12-17T09:38:15.399Z,34.33
2022-12-17T09:43:49.066Z,35.08
2022-12-17T09:49:18.546Z,31.42
2022-12-17T09:54:47.128Z,36.40
2022-12-17T10:00:07.556Z,32.83
2022-12-17T10:05:34.043Z,25.98
2022-12-17T10:10:59.411Z,28.33
2022-12-17T10:16:20.434Z,28.98
2022-12-17T10:21:40.229Z,25.20
2022-12-17T10:27:07.239Z,21.33
2022-12-17T10:32:35.475Z,29.83
2022-12-17T10:37:55.695Z,28.80
2022-12-17T10:43:15.379Z,32.20
2022-12-17T10:48:42.346Z,29.37
2022-12-17T10:54:08.907Z,38.35
2022-12-17T10:59:41.395Z,33.58
2022-12-17T11:05:11.251Z,32.08
2022-12-17T11:10:42.710Z,31.53
2022-12-17T11:16:07.584Z,34.15
2022-12-17T11:21:39.216Z,38.03
2022-12-17T11:27:01.783Z,36.13
2022-12-17T11:32:49.487Z,41.47
2022-12-17T11:38:29.458Z,37.65
2022-12-17T11:44:10.711Z,42.72
2022-12-17T11:49:52.733Z,40.85
2022-12-17T11:55:35.637Z,44.72
2022-12-17T12:01:09.699Z,38.00
2022-12-17T12:06:41.708Z,41.40
2022-12-17T12:12:15.733Z,45.90
2022-12-17T12:17:50.680Z,43.53
2022-12-17T12:23:37.160Z,39.92
2022-12-17T12:29:16.387Z,49.75
2022-12-17T12:34:40.407Z,45.17
2022-12-17T12:40:12.778Z,43.03
2022-12-17T12:46:17.046Z,46.50
2022-12-17T12:51:52.854Z,52.58
2022-12-17T12:57:12.741Z,49.47
2022-12-17T13:02:37.872Z,47.58
2022-12-17T13:07:39.416Z,47.40
2022-12-17T13:12:47.301Z,43.70
2022-12-17T13:17:57.550Z,45.40
2022-12-17T13:28:28.293Z,46.40
2022-12-17T13:34:07.016Z,49.75
2022-12-17T13:39:30.401Z,51.85
2022-12-17T13:44:45.482Z,51.00
2022-12-17T13:50:24.459Z,46.63
2022-12-17T13:55:29.053Z,54.17
2022-12-17T14:00:32.479Z,49.15
2022-12-17T14:05:37.882Z,53.55
2022-12-17T14:10:47.643Z,52.67
2022-12-17T14:15:52.803Z,54.45
2022-12-17T14:20:55.647Z,65.43
2022-12-17T14:25:57.877Z,54.65
2022-12-17T14:36:31.495Z,51.63
2022-12-17T14:41:56.474Z,52.33
2022-12-17T14:47:19.553Z,43.05
2022-12-17T14:52:30.212Z,47.55
2022-12-17T14:57:31.624Z,48.30
2022-12-17T15:02:37.775Z,45.33
2022-12-17T15:07:39.674Z,46.20
2022-12-17T15:12:43.090Z,53.42
2022-12-17T15:17:44.633Z,47.10
2022-12-17T15:22:47.158Z,53.90
2022-12-17T15:27:48.674Z,45.83
2022-12-17T15:32:50.146Z,43.83
2022-12-17T15:37:51.665Z,53.05
2022-12-17T15:43:12.833Z,53.45
2022-12-17T15:48:19.540Z,45.55
2022-12-17T15:53:20.918Z,47.25
2022-12-17T15:58:22.326Z,45.58
2022-12-17T16:03:23.768Z,46.22
2022-12-17T16:08:25.351Z,62.28
2022-12-17T16:13:26.767Z,68.82
2022-12-17T16:18:28.315Z,83.47
2022-12-17T16:23:30.108Z,77.57
2022-12-17T16:28:31.626Z,68.20
2022-12-17T16:33:37.804Z,88.35
2022-12-17T16:38:47.304Z,77.97
2022-12-17T16:43:49.304Z,71.63
2022-12-17T16:48:50.880Z,80.18
2022-12-17T16:53:52.777Z,72.53
2022-12-17T16:58:55.396Z,72.70
2022-12-17T17:03:57.536Z,55.53
2022-12-17T17:08:59.045Z,56.65
2022-12-17T17:14:00.905Z,56.47
2022-12-17T17:19:03.423Z,70.00
2022-12-17T17:24:18.456Z,79.40
2022-12-17T17:29:22.494Z,81.55
2022-12-17T17:34:23.960Z,66.78
2022-12-17T17:39:25.900Z,73.28
2022-12-17T17:44:27.313Z,73.80
2022-12-17T17:49:29.018Z,74.32
2022-12-17T17:54:31.246Z,84.18
2022-12-17T17:59:33.956Z,65.43
2022-12-17T18:04:35.967Z,68.55
2022-12-17T18:09:37.446Z,73.43
2022-12-17T18:14:46.662Z,68.22
2022-12-17T18:19:59.363Z,63.90
2022-12-17T18:25:00.851Z,62.28
2022-12-17T18:30:02.306Z,59.33
2022-12-17T18:35:04.195Z,50.22
2022-12-17T18:40:06.541Z,55.85
2022-12-17T18:45:08.367Z,57.20
2022-12-17T18:50:11.019Z,78.68
2022-12-17T18:55:12.601Z,77.40
2022-12-17T19:00:14.903Z,73.90
2022-12-17T19:05:16.581Z,68.90
2022-12-17T19:10:18.131Z,66.32
2022-12-17T19:15:19.601Z,61.08
2022-12-17T19:20:21.056Z,63.13
2022-12-17T19:25:23.054Z,67.10
2022-12-17T19:30:24.572Z,69.07
2022-12-17T19:35:26.280Z,66.43
2022-12-17T19:40:28.001Z,72.30
2022-12-17T19:45:31.856Z,70.97
2022-12-17T19:50:33.419Z,74.15
2022-12-17T19:55:35.227Z,76.10
2022-12-17T20:00:37.000Z,69.88
2022-12-17T20:05:38.829Z,71.30
2022-12-17T20:10:40.440Z,65.70
2022-12-17T20:15:41.889Z,60.08
2022-12-17T20:20:44.417Z,80.38
2022-12-17T20:25:45.921Z,69.50
2022-12-17T20:30:47.452Z,73.70
2022-12-17T20:35:48.985Z,59.10
2022-12-17T20:40:50.410Z,56.58
2022-12-17T20:45:55.174Z,60.47
2022-12-17T20:50:56.697Z,72.90
2022-12-17T20:56:19.815Z,48.38
2022-12-17T21:01:23.378Z,61.20
2022-12-17T21:06:32.484Z,78.55
2022-12-17T21:11:35.151Z,65.90
2022-12-17T21:16:38.697Z,57.47
2022-12-17T21:21:40.302Z,54.78
2022-12-17T21:26:43.469Z,57.88
2022-12-17T21:31:50.306Z,52.08
2022-12-17T21:36:52.339Z,65.82
2022-12-17T21:42:12.581Z,51.67
2022-12-17T21:47:14.014Z,60.47
2022-12-17T21:52:15.444Z,67.25
2022-12-17T21:57:16.904Z,72.47
2022-12-17T22:02:18.402Z,74.28
2022-12-17T22:07:22.034Z,61.65
2022-12-17T22:12:45.702Z,58.58
2022-12-17T22:17:47.242Z,73.97
2022-12-17T22:22:48.921Z,75.45
2022-12-17T22:27:50.486Z,51.17
2022-12-17T22:33:02.213Z,77.88
2022-12-17T22:41:36.910Z,69.53
2022-12-17T22:44:37.449Z,53.28
2022-12-17T22:48:52.642Z,74.95
2022-12-17T22:53:54.674Z,74.20
2022-12-17T22:58:57.325Z,61.85
2022-12-17T23:04:00.232Z,74.75
2022-12-17T23:09:01.708Z,77.05
2022-12-17T23:14:03.633Z,97.97
2022-12-17T23:19:06.233Z,84.15
2022-12-17T23:24:08.322Z,59.75
2022-12-17T23:29:19.339Z,87.45
2022-12-17T23:34:21.116Z,73.55
2022-12-17T23:39:22.660Z,72.53
2022-12-17T23:44:24.314Z,71.72
2022-12-17T23:49:26.028Z,85.10
2022-12-17T23:54:27.718Z,77.22
2022-12-17T23:59:29.211Z,89.40
